Time;durP1;ratioP1;P1;durP2;ratioP2;P2;SDS_P1;SDS_P2;PMS_P1;PMS_P2;Temp;Humidity;BMP_temperature;BMP_pressure;BME280_temperature;BME280_humidity;BME280_pressure;Samples;Min_cycle;Max_cycle;Signal;HPM_P1;HPM_P2
2022/05/27 00:01:05;;;;;;;;;;;16.40;71.90;;;;;;4990867;28;20332;-81
2022/05/27 00:03:30;;;;;;;;;;;16.50;71.60;;;;;;4988362;28;20001;-81
2022/05/27 00:05:56;;;;;;;;;;;16.40;72.00;;;;;;5011980;28;19917;-80
2022/05/27 00:08:22;;;;;;;;;;;16.40;72.10;;;;;;5010979;28;20292;-81
2022/05/27 00:10:48;;;;;;;;;;;16.40;72.20;;;;;;5009694;28;19914;-82
2022/05/27 00:13:13;;;;;;;;;;;16.40;72.30;;;;;;4992423;28;19917;-81
2022/05/27 00:15:39;;;;;;;;;;;16.30;74.00;;;;;;4994376;28;19909;-81
2022/05/27 00:18:05;;;;;;;;;;;16.30;74.50;;;;;;4995718;28;20051;-80
2022/05/27 00:20:30;;;;;;;;;;;16.20;74.80;;;;;;4994763;28;19936;-81
2022/05/27 00:22:56;;;;;;;;;;;16.20;74.60;;;;;;4986301;28;19921;-81
2022/05/27 00:25:21;;;;;;;;;;;16.10;74.00;;;;;;4974511;28;19994;-81
2022/05/27 00:27:47;;;;;;;;;;;16.10;73.80;;;;;;4986111;28;19969;-80
2022/05/27 00:30:12;;;;;;;;;;;16.10;73.60;;;;;;4994241;28;20029;-81
2022/05/27 00:32:38;;;;;;;;;;;16.10;74.70;;;;;;4994134;28;19917;-81
2022/05/27 00:35:04;;;;;;;;;;;16.00;75.50;;;;;;4997217;28;19921;-82
2022/05/27 00:37:30;;;;;;;;;;;16.00;76.50;;;;;;4994549;28;19918;-82
2022/05/27 00:39:56;;;;;;;;;;;16.00;77.80;;;;;;4995766;28;19947;-81
2022/05/27 00:42:21;;;;;;;;;;;15.80;78.40;;;;;;4993055;28;19922;-81
2022/05/27 00:44:47;;;;;;;;;;;15.70;79.00;;;;;;4994809;28;20337;-81
2022/05/27 00:47:15;;;;;;;;;;;15.60;80.60;;;;;;4993436;28;19910;-81
2022/05/27 00:49:44;;;;;;;;;;;15.50;81.20;;;;;;5013905;28;19913;-82
2022/05/27 00:52:11;;;;;;;;;;;15.40;81.90;;;;;;4995873;28;19940;-81
2022/05/27 00:54:37;;;;;;;;;;;15.50;81.70;;;;;;5011817;28;19916;-81
2022/05/27 00:57:05;;;;;;;;;;;15.30;82.50;;;;;;4999705;28;20025;-82
2022/05/27 00:59:34;;;;;;;;;;;15.30;82.90;;;;;;4991947;28;20383;-81
2022/05/27 01:01:59;;;;;;;;;;;15.20;83.10;;;;;;4990184;28;19924;-82
2022/05/27 01:04:26;;;;;;;;;;;15.10;83.60;;;;;;4989246;28;20000;-81
2022/05/27 01:06:52;;;;;;;;;;;15.10;83.20;;;;;;5004698;28;19970;-80
2022/05/27 01:09:17;;;;;;;;;;;15.20;84.00;;;;;;5008384;28;20047;-83
2022/05/27 01:11:52;;;;;;;;;;;15.10;83.80;;;;;;4996570;28;19909;-82
2022/05/27 01:14:18;;;;;;;;;;;15.10;83.80;;;;;;4997966;28;20328;-82
2022/05/27 01:16:49;;;;;;;;;;;15.10;83.50;;;;;;4995643;28;19937;-81
2022/05/27 01:22:25;;;;;;;;;;;15.10;83.20;;;;;;4996747;28;19979;-79
2022/05/27 01:25:00;;;;;;;;;;;15.20;83.00;;;;;;4994374;28;20396;-80
2022/05/27 01:27:40;;;;;;;;;;;15.20;83.00;;;;;;4997429;28;19913;-83
2022/05/27 01:30:08;;;;;;;;;;;15.20;83.30;;;;;;4997776;28;19910;-83
2022/05/27 01:32:47;;;;;;;;;;;15.10;84.40;;;;;;5006468;28;19914;-83
2022/05/27 01:35:12;;;;;;;;;;;15.00;84.40;;;;;;5002435;28;19980;-82
2022/05/27 01:37:47;;;;;;;;;;;15.00;84.30;;;;;;4995465;28;19917;-83
2022/05/27 01:40:24;;;;;;;;;;;14.90;85.20;;;;;;4996945;28;19913;-83
2022/05/27 01:43:19;;;;;;;;;;;14.90;85.70;;;;;;4997408;28;19914;-84
2022/05/27 01:45:51;;;;;;;;;;;14.90;85.70;;;;;;4965693;28;19910;-83
2022/05/27 01:48:27;;;;;;;;;;;14.90;86.20;;;;;;4997695;28;19947;-83
2022/05/27 01:50:57;;;;;;;;;;;14.90;86.20;;;;;;4996693;28;19921;-83
2022/05/27 01:53:34;;;;;;;;;;;14.70;85.90;;;;;;4996417;28;19914;-84
2022/05/27 01:56:07;;;;;;;;;;;14.80;86.10;;;;;;4978276;28;20017;-83
2022/05/27 01:58:44;;;;;;;;;;;14.80;86.00;;;;;;4991627;28;19924;-83
2022/05/27 02:01:12;;;;;;;;;;;14.90;85.90;;;;;;4989815;28;19949;-83
2022/05/27 02:03:41;;;;;;;;;;;14.90;85.60;;;;;;4995062;28;20318;-83
2022/05/27 02:06:11;;;;;;;;;;;14.80;86.10;;;;;;4987587;28;19925;-82
2022/05/27 02:08:38;;;;;;;;;;;14.80;85.80;;;;;;4991018;28;19917;-83
2022/05/27 02:11:12;;;;;;;;;;;14.80;86.00;;;;;;4989937;28;19910;-84
2022/05/27 02:13:40;;;;;;;;;;;14.90;85.90;;;;;;4992686;28;19910;-83
2022/05/27 02:16:08;;;;;;;;;;;14.80;86.30;;;;;;4994088;28;19933;-83
2022/05/27 02:18:44;;;;;;;;;;;14.80;86.70;;;;;;4998161;28;20016;-83
2022/05/27 02:21:16;;;;;;;;;;;14.80;86.40;;;;;;5010275;28;19992;-83
2022/05/27 02:24:02;;;;;;;;;;;14.80;86.10;;;;;;4998807;28;19921;-83
2022/05/27 02:26:30;;;;;;;;;;;14.80;86.30;;;;;;4992252;28;19914;-84
2022/05/27 02:28:59;;;;;;;;;;;14.70;85.70;;;;;;4995459;28;19960;-84
2022/05/27 02:31:28;;;;;;;;;;;14.80;85.80;;;;;;5005207;28;19974;-83
2022/05/27 02:36:50;;;;;;;;;;;14.80;86.10;;;;;;4992527;28;19924;-84
2022/05/27 02:39:16;;;;;;;;;;;14.80;86.50;;;;;;5000223;28;19949;-83
2022/05/27 02:41:58;;;;;;;;;;;14.80;86.10;;;;;;4990086;28;19961;-83
2022/05/27 02:44:30;;;;;;;;;;;14.70;86.80;;;;;;4989412;28;19989;-82
2022/05/27 02:47:18;;;;;;;;;;;14.70;86.90;;;;;;4989757;28;19914;-82
2022/05/27 02:49:47;;;;;;;;;;;14.70;86.80;;;;;;5000339;28;19914;-81
2022/05/27 02:52:12;;;;;;;;;;;14.60;87.50;;;;;;4996925;28;20325;-82
2022/05/27 02:54:50;;;;;;;;;;;14.60;87.30;;;;;;5010204;28;19921;-82
2022/05/27 02:57:28;;;;;;;;;;;14.50;87.60;;;;;;4997189;28;19913;-81
2022/05/27 02:59:54;;;;;;;;;;;14.50;88.00;;;;;;4988312;28;19921;-81
2022/05/27 03:02:20;;;;;;;;;;;14.50;87.90;;;;;;4988847;28;19913;-82
2022/05/27 03:04:49;;;;;;;;;;;14.50;88.40;;;;;;4991098;28;19918;-82
2022/05/27 03:07:31;;;;;;;;;;;14.40;88.30;;;;;;4979287;28;19909;-81
2022/05/27 03:10:15;;;;;;;;;;;14.30;88.30;;;;;;4970041;28;20001;-81
2022/05/27 03:12:50;;;;;;;;;;;14.30;88.60;;;;;;4973471;28;20334;-81
2022/05/27 03:15:18;;;;;;;;;;;14.20;88.70;;;;;;4992242;28;19914;-81
2022/05/27 03:17:56;;;;;;;;;;;14.30;89.00;;;;;;4993225;28;19952;-81
2022/05/27 03:20:30;;;;;;;;;;;14.20;89.00;;;;;;4992011;28;19921;-80
2022/05/27 03:23:22;;;;;;;;;;;14.20;88.80;;;;;;5007609;28;19985;-81
2022/05/27 03:25:59;;;;;;;;;;;14.20;89.20;;;;;;5012330;28;19918;-81
2022/05/27 03:28:43;;;;;;;;;;;14.20;89.40;;;;;;4993855;28;19918;-79
2022/05/27 03:31:14;;;;;;;;;;;14.20;89.10;;;;;;4971920;28;19921;-81
2022/05/27 03:34:03;;;;;;;;;;;14.20;88.80;;;;;;4991826;28;19910;-81
2022/05/27 03:36:36;;;;;;;;;;;14.20;89.00;;;;;;4992715;28;19976;-82
2022/05/27 03:39:08;;;;;;;;;;;14.20;89.60;;;;;;4992368;28;19910;-83
2022/05/27 03:41:36;;;;;;;;;;;14.20;89.20;;;;;;4995782;28;19922;-83
2022/05/27 03:44:02;;;;;;;;;;;14.30;88.80;;;;;;5004905;28;19913;-83
2022/05/27 03:46:38;;;;;;;;;;;14.40;89.10;;;;;;4996751;28;20008;-82
2022/05/27 03:49:04;;;;;;;;;;;14.30;89.10;;;;;;5014787;28;19910;-82
2022/05/27 03:51:46;;;;;;;;;;;14.10;87.40;;;;;;5002245;28;19914;-82
2022/05/27 03:54:11;;;;;;;;;;;14.10;87.90;;;;;;4997448;28;19910;-81
2022/05/27 03:56:39;;;;;;;;;;;13.80;87.30;;;;;;4997400;28;19910;-80
2022/05/27 03:59:06;;;;;;;;;;;13.80;86.80;;;;;;5006654;28;19924;-83
2022/05/27 04:01:32;;;;;;;;;;;13.70;87.20;;;;;;5003037;28;19918;-83
2022/05/27 04:03:59;;;;;;;;;;;13.70;86.70;;;;;;5003054;28;19913;-82
2022/05/27 04:06:25;;;;;;;;;;;13.60;87.40;;;;;;5003764;28;19917;-83
2022/05/27 04:08:51;;;;;;;;;;;13.60;86.70;;;;;;4999976;28;19914;-83
2022/05/27 04:11:16;;;;;;;;;;;13.60;87.30;;;;;;4998787;28;20444;-82
2022/05/27 04:13:42;;;;;;;;;;;13.60;88.00;;;;;;4997934;28;20284;-82
2022/05/27 04:16:07;;;;;;;;;;;13.60;87.90;;;;;;4997224;28;19981;-82
2022/05/27 04:18:32;;;;;;;;;;;13.60;87.40;;;;;;4992518;28;19940;-82
2022/05/27 04:20:58;;;;;;;;;;;13.70;87.90;;;;;;5017157;28;20000;-82
2022/05/27 04:23:23;;;;;;;;;;;13.70;88.20;;;;;;5011082;28;19952;-82
2022/05/27 04:25:49;;;;;;;;;;;13.70;88.60;;;;;;4977055;28;19918;-82
2022/05/27 04:28:15;;;;;;;;;;;13.70;88.70;;;;;;4994279;28;19910;-82
2022/05/27 04:30:41;;;;;;;;;;;13.70;88.80;;;;;;5003605;28;19934;-81
2022/05/27 04:33:07;;;;;;;;;;;13.80;88.40;;;;;;5007023;28;19973;-82
2022/05/27 04:35:33;;;;;;;;;;;13.70;88.30;;;;;;5013220;28;19925;-82
2022/05/27 04:37:58;;;;;;;;;;;13.60;88.50;;;;;;4998905;28;20393;-81
2022/05/27 04:40:24;;;;;;;;;;;13.70;88.40;;;;;;4998552;28;19913;-82
2022/05/27 04:42:49;;;;;;;;;;;13.60;88.80;;;;;;4998742;28;20497;-81
2022/05/27 04:45:15;;;;;;;;;;;13.60;89.20;;;;;;4995887;28;20306;-80
2022/05/27 04:47:40;;;;;;;;;;;13.70;88.90;;;;;;4997723;28;20369;-81
2022/05/27 04:50:09;;;;;;;;;;;13.70;88.80;;;;;;5010180;28;19918;-81
2022/05/27 04:52:35;;;;;;;;;;;13.70;88.70;;;;;;4992578;28;20362;-81
2022/05/27 04:55:02;;;;;;;;;;;13.70;88.80;;;;;;4976280;28;19979;-81
2022/05/27 04:57:30;;;;;;;;;;;13.70;88.90;;;;;;4994186;28;19914;-81
2022/05/27 04:59:56;;;;;;;;;;;13.70;89.10;;;;;;4974649;28;19924;-82
2022/05/27 05:02:21;;;;;;;;;;;13.80;89.10;;;;;;5008526;28;19933;-81
2022/05/27 05:04:47;;;;;;;;;;;13.80;89.20;;;;;;5008659;28;19918;-81
2022/05/27 05:07:13;;;;;;;;;;;13.80;89.10;;;;;;4987689;28;19921;-81
2022/05/27 05:09:39;;;;;;;;;;;13.90;89.10;;;;;;5000741;28;19991;-81
2022/05/27 05:12:05;;;;;;;;;;;14.00;88.80;;;;;;5012973;28;19917;-81
2022/05/27 05:14:31;;;;;;;;;;;14.00;88.80;;;;;;5012106;28;19943;-82
2022/05/27 05:16:56;;;;;;;;;;;14.00;88.60;;;;;;4995980;28;19924;-81
2022/05/27 05:19:22;;;;;;;;;;;14.00;89.10;;;;;;5011700;28;20340;-81
2022/05/27 05:21:47;;;;;;;;;;;14.00;88.50;;;;;;4991788;28;20431;-81
2022/05/27 05:24:13;;;;;;;;;;;14.00;88.60;;;;;;4990752;28;19921;-81
2022/05/27 05:26:38;;;;;;;;;;;14.00;88.30;;;;;;4991800;28;19937;-82
2022/05/27 05:29:06;;;;;;;;;;;14.10;88.70;;;;;;4991239;28;19945;-82
2022/05/27 05:31:31;;;;;;;;;;;14.20;88.40;;;;;;4995694;28;19914;-82
2022/05/27 05:33:59;;;;;;;;;;;14.20;88.10;;;;;;5002877;28;19925;-81
2022/05/27 05:36:25;;;;;;;;;;;14.30;87.90;;;;;;4993527;28;19926;-81
2022/05/27 05:38:51;;;;;;;;;;;14.30;88.00;;;;;;5001340;28;19914;-82
2022/05/27 05:41:26;;;;;;;;;;;14.30;87.80;;;;;;4999124;28;20004;-82
2022/05/27 05:43:54;;;;;;;;;;;14.30;87.90;;;;;;4978121;28;20378;-83
2022/05/27 05:46:19;;;;;;;;;;;14.40;88.20;;;;;;4998827;28;19953;-81
2022/05/27 05:48:45;;;;;;;;;;;14.40;88.00;;;;;;4998924;28;19913;-81
2022/05/27 05:51:10;;;;;;;;;;;14.40;88.10;;;;;;5010872;28;19909;-82
2022/05/27 05:53:36;;;;;;;;;;;14.50;87.90;;;;;;5011893;28;20373;-81
2022/05/27 05:56:01;;;;;;;;;;;14.50;87.60;;;;;;4976777;28;19993;-81
2022/05/27 05:58:27;;;;;;;;;;;14.50;87.70;;;;;;4991814;28;19949;-82
2022/05/27 06:00:52;;;;;;;;;;;14.60;87.40;;;;;;4998854;28;19918;-81
2022/05/27 06:03:18;;;;;;;;;;;14.70;87.70;;;;;;5006563;28;19917;-82
2022/05/27 06:05:43;;;;;;;;;;;14.70;87.20;;;;;;4994560;28;19964;-82
2022/05/27 06:08:10;;;;;;;;;;;14.80;87.00;;;;;;4993469;28;19924;-82
2022/05/27 06:10:36;;;;;;;;;;;14.80;87.30;;;;;;4992039;28;19921;-81
2022/05/27 06:13:01;;;;;;;;;;;14.80;87.00;;;;;;5009437;28;19917;-81
2022/05/27 06:15:26;;;;;;;;;;;14.90;86.90;;;;;;4995738;28;20205;-81
2022/05/27 06:17:52;;;;;;;;;;;14.90;86.90;;;;;;4993883;28;19949;-80
2022/05/27 06:20:18;;;;;;;;;;;14.90;86.60;;;;;;5003926;28;19965;-81
2022/05/27 06:22:43;;;;;;;;;;;15.00;86.50;;;;;;5015297;28;19924;-81
2022/05/27 06:25:09;;;;;;;;;;;15.00;86.60;;;;;;5013862;28;19936;-83
2022/05/27 06:27:34;;;;;;;;;;;15.00;86.90;;;;;;5018732;28;19920;-83
2022/05/27 06:35:29;;;;;;;;;;;15.10;86.30;;;;;;4996407;28;19940;-81
2022/05/27 06:37:54;;;;;;;;;;;15.10;86.10;;;;;;4995532;28;20008;-81
2022/05/27 06:40:20;;;;;;;;;;;15.10;86.40;;;;;;4994439;28;20305;-83
2022/05/27 06:42:45;;;;;;;;;;;15.30;85.30;;;;;;4993947;28;19914;-79
2022/05/27 06:45:11;;;;;;;;;;;15.30;85.60;;;;;;4995638;28;20415;-81
2022/05/27 06:47:39;;;;;;;;;;;15.40;85.80;;;;;;5010611;28;19911;-81
2022/05/27 06:50:05;;;;;;;;;;;15.50;85.90;;;;;;4999214;28;20008;-81
2022/05/27 06:52:31;;;;;;;;;;;15.60;85.00;;;;;;4990825;28;20059;-81
2022/05/27 06:54:56;;;;;;;;;;;15.70;84.20;;;;;;4990942;28;20001;-81
2022/05/27 06:57:22;;;;;;;;;;;15.80;83.50;;;;;;4993339;28;19929;-81
2022/05/27 06:59:47;;;;;;;;;;;15.70;84.20;;;;;;4999263;28;20468;-81
2022/05/27 07:02:12;;;;;;;;;;;15.80;84.10;;;;;;4995808;28;19917;-83
2022/05/27 07:04:38;;;;;;;;;;;15.80;83.50;;;;;;5012968;28;19986;-81
2022/05/27 07:07:04;;;;;;;;;;;15.90;84.40;;;;;;4995951;28;19910;-81
2022/05/27 07:09:35;;;;;;;;;;;15.90;83.10;;;;;;4990747;28;19913;-81
2022/05/27 07:12:01;;;;;;;;;;;16.00;82.00;;;;;;5004964;28;19914;-81
2022/05/27 07:14:27;;;;;;;;;;;16.00;82.20;;;;;;5013770;28;19940;-81
2022/05/27 07:16:52;;;;;;;;;;;15.90;82.50;;;;;;5009322;28;19980;-80
2022/05/27 07:19:21;;;;;;;;;;;16.00;81.80;;;;;;4999997;28;20005;-81
2022/05/27 07:21:47;;;;;;;;;;;16.10;81.40;;;;;;5012864;28;20399;-80
2022/05/27 07:24:14;;;;;;;;;;;16.00;81.00;;;;;;5017896;28;19924;-82
2022/05/27 07:26:40;;;;;;;;;;;16.20;79.90;;;;;;5003865;28;19928;-81
2022/05/27 07:29:06;;;;;;;;;;;16.40;79.80;;;;;;5016963;28;19909;-81
2022/05/27 07:31:32;;;;;;;;;;;16.30;78.70;;;;;;5018211;28;19913;-82
2022/05/27 07:33:58;;;;;;;;;;;16.40;78.30;;;;;;5020215;28;20563;-82
2022/05/27 07:36:23;;;;;;;;;;;16.40;76.50;;;;;;5023210;28;19927;-81
2022/05/27 07:38:51;;;;;;;;;;;16.50;78.40;;;;;;5005062;28;20051;-83
2022/05/27 07:41:17;;;;;;;;;;;16.50;78.80;;;;;;5020893;28;20392;-83
2022/05/27 07:43:43;;;;;;;;;;;16.70;77.70;;;;;;5001527;28;20048;-81
2022/05/27 07:46:08;;;;;;;;;;;16.70;76.60;;;;;;4999092;28;19990;-83
2022/05/27 07:48:34;;;;;;;;;;;16.90;77.90;;;;;;5000387;28;19913;-82
2022/05/27 07:50:59;;;;;;;;;;;16.90;76.70;;;;;;5000619;28;19918;-82
2022/05/27 07:53:24;;;;;;;;;;;16.90;75.90;;;;;;5009585;28;19917;-81
2022/05/27 07:55:50;;;;;;;;;;;16.90;74.80;;;;;;5006234;28;19944;-82
2022/05/27 07:58:15;;;;;;;;;;;16.70;75.20;;;;;;5019269;28;20233;-83
2022/05/27 08:00:41;;;;;;;;;;;16.60;76.00;;;;;;5004729;28;19984;-83
2022/05/27 08:03:06;;;;;;;;;;;16.60;76.30;;;;;;5000661;28;20060;-84
2022/05/27 08:05:33;;;;;;;;;;;16.70;72.80;;;;;;5001914;28;19945;-84
2022/05/27 08:07:59;;;;;;;;;;;16.50;75.00;;;;;;5002248;28;19977;-84
2022/05/27 08:10:27;;;;;;;;;;;16.40;75.80;;;;;;5010389;28;19924;-84
2022/05/27 08:12:52;;;;;;;;;;;16.50;77.60;;;;;;5005246;28;19987;-85
2022/05/27 08:15:18;;;;;;;;;;;16.70;75.60;;;;;;5004233;28;20445;-83
2022/05/27 08:17:43;;;;;;;;;;;16.90;73.50;;;;;;5001835;28;19914;-82
2022/05/27 08:20:12;;;;;;;;;;;17.10;73.40;;;;;;4999200;28;19910;-83
2022/05/27 08:22:38;;;;;;;;;;;17.10;72.00;;;;;;4994280;28;20344;-83
2022/05/27 08:25:04;;;;;;;;;;;17.00;73.40;;;;;;4999879;28;19925;-82
2022/05/27 08:27:29;;;;;;;;;;;16.90;73.00;;;;;;4995884;28;19976;-83
2022/05/27 08:29:55;;;;;;;;;;;17.00;74.40;;;;;;4997314;28;19917;-82
2022/05/27 08:32:20;;;;;;;;;;;17.00;74.20;;;;;;4991878;28;20008;-83
2022/05/27 08:40:23;;;;;;;;;;;17.10;71.80;;;;;;4994274;28;19921;-82
2022/05/27 08:42:48;;;;;;;;;;;17.20;70.50;;;;;;4981521;28;19933;-83
2022/05/27 08:45:19;;;;;;;;;;;17.50;70.50;;;;;;4982505;28;20377;-82
2022/05/27 08:47:48;;;;;;;;;;;17.50;69.50;;;;;;4999512;28;19945;-81
2022/05/27 08:50:33;;;;;;;;;;;17.60;68.90;;;;;;4999479;28;20004;-82
2022/05/27 08:53:04;;;;;;;;;;;17.60;69.30;;;;;;4979530;28;20008;-81
2022/05/27 09:01:06;;;;;;;;;;;17.60;67.40;;;;;;5016051;28;19955;-81
2022/05/27 09:03:33;;;;;;;;;;;17.60;67.30;;;;;;5000073;28;19925;-82
2022/05/27 09:06:01;;;;;;;;;;;17.50;67.60;;;;;;4996842;28;19910;-83
2022/05/27 09:08:28;;;;;;;;;;;17.60;65.10;;;;;;5010041;28;20274;-82
2022/05/27 09:10:56;;;;;;;;;;;17.60;65.10;;;;;;4994888;28;19930;-83
2022/05/27 09:13:28;;;;;;;;;;;17.50;64.10;;;;;;4993135;28;19914;-82
2022/05/27 09:15:56;;;;;;;;;;;17.20;63.90;;;;;;4993015;28;19910;-82
2022/05/27 09:18:25;;;;;;;;;;;17.00;64.80;;;;;;4996385;28;19978;-82
2022/05/27 09:20:58;;;;;;;;;;;16.90;65.90;;;;;;4984338;28;20016;-81
2022/05/27 09:23:37;;;;;;;;;;;17.00;65.90;;;;;;4996778;28;19913;-81
2022/05/27 09:26:27;;;;;;;;;;;16.80;63.30;;;;;;4991640;28;20361;-81
2022/05/27 09:29:08;;;;;;;;;;;16.70;63.30;;;;;;4998241;28;19983;-83
2022/05/27 09:31:37;;;;;;;;;;;16.80;62.90;;;;;;5000454;28;20008;-81
2022/05/27 09:34:03;;;;;;;;;;;17.10;63.50;;;;;;5001591;28;20293;-82
2022/05/27 09:36:37;;;;;;;;;;;17.50;62.90;;;;;;5001377;28;19918;-83
2022/05/27 09:39:05;;;;;;;;;;;17.70;62.80;;;;;;4999908;28;19993;-79
2022/05/27 09:41:39;;;;;;;;;;;18.00;60.30;;;;;;4997144;28;19917;-80
2022/05/27 09:44:24;;;;;;;;;;;18.00;59.00;;;;;;5003305;28;19914;-78
2022/05/27 09:46:50;;;;;;;;;;;17.80;58.70;;;;;;4969704;28;19917;-80
2022/05/27 09:49:15;;;;;;;;;;;17.50;59.60;;;;;;4978460;28;19989;-80
2022/05/27 09:51:41;;;;;;;;;;;17.30;58.90;;;;;;4993232;28;19909;-79
2022/05/27 09:54:10;;;;;;;;;;;17.30;61.40;;;;;;4998667;28;19914;-83
2022/05/27 09:56:45;;;;;;;;;;;17.40;60.70;;;;;;4982828;28;19914;-82
2022/05/27 09:59:37;;;;;;;;;;;17.70;60.60;;;;;;5010299;28;19913;-81
2022/05/27 10:02:22;;;;;;;;;;;18.00;58.90;;;;;;4968213;28;19922;-82
2022/05/27 10:04:52;;;;;;;;;;;18.00;59.10;;;;;;4991731;28;19921;-81
2022/05/27 10:07:29;;;;;;;;;;;17.80;58.80;;;;;;5001362;28;19945;-79
2022/05/27 10:09:54;;;;;;;;;;;17.70;56.50;;;;;;5002635;28;19924;-78
2022/05/27 10:12:27;;;;;;;;;;;17.60;56.40;;;;;;5004003;28;19910;-79
2022/05/27 10:14:53;;;;;;;;;;;17.60;56.30;;;;;;4994767;28;20321;-81
2022/05/27 10:17:31;;;;;;;;;;;17.60;57.00;;;;;;4994771;28;19921;-82
2022/05/27 10:20:14;;;;;;;;;;;17.60;56.50;;;;;;5005054;28;19913;-82
2022/05/27 10:22:40;;;;;;;;;;;17.60;56.40;;;;;;4994912;28;20012;-84
2022/05/27 10:25:08;;;;;;;;;;;17.60;57.10;;;;;;4988462;28;20115;-84
2022/05/27 10:27:38;;;;;;;;;;;17.80;56.00;;;;;;4989099;28;19914;-84
2022/05/27 10:30:22;;;;;;;;;;;17.80;56.10;;;;;;4991594;28;19986;-84
2022/05/27 10:32:48;;;;;;;;;;;17.70;56.10;;;;;;4985348;28;19914;-83
2022/05/27 10:35:26;;;;;;;;;;;17.90;56.50;;;;;;4995350;28;19993;-84
2022/05/27 10:38:07;;;;;;;;;;;18.00;55.40;;;;;;4986701;28;19917;-81
2022/05/27 10:40:38;;;;;;;;;;;18.00;56.20;;;;;;5000383;28;19914;-84
2022/05/27 10:43:12;;;;;;;;;;;17.80;54.30;;;;;;5003919;28;19914;-83
2022/05/27 10:45:38;;;;;;;;;;;17.60;55.10;;;;;;4994699;28;20336;-83
2022/05/27 10:48:13;;;;;;;;;;;17.60;56.10;;;;;;4996044;28;20269;-83
2022/05/27 10:50:38;;;;;;;;;;;17.70;56.80;;;;;;4976228;28;19910;-83
2022/05/27 10:53:13;;;;;;;;;;;17.80;53.90;;;;;;4968491;28;20009;-82
2022/05/27 10:55:39;;;;;;;;;;;18.00;54.60;;;;;;4990345;28;20262;-80
2022/05/27 11:04:23;;;;;;;;;;;18.30;51.90;;;;;;4988613;28;19925;-79
2022/05/27 11:06:48;;;;;;;;;;;18.60;52.60;;;;;;4967552;28;19997;-80
2022/05/27 11:09:29;;;;;;;;;;;18.80;51.50;;;;;;4969278;28;20820;-79
2022/05/27 11:11:55;;;;;;;;;;;18.90;51.70;;;;;;4974810;28;19989;-79
2022/05/27 11:17:20;;;;;;;;;;;18.50;52.40;;;;;;5001020;28;19920;-80
2022/05/27 11:19:54;;;;;;;;;;;18.60;51.90;;;;;;4993484;28;20304;-80
2022/05/27 11:22:37;;;;;;;;;;;18.50;51.10;;;;;;5004051;28;20415;-78
2022/05/27 11:25:02;;;;;;;;;;;18.30;51.50;;;;;;4982401;28;20029;-81
2022/05/27 11:27:29;;;;;;;;;;;18.10;52.20;;;;;;4976753;28;20040;-81
2022/05/27 11:30:01;;;;;;;;;;;18.20;52.20;;;;;;4961429;28;19985;-83
2022/05/27 11:32:27;;;;;;;;;;;18.40;50.60;;;;;;4989743;28;19914;-82
2022/05/27 11:35:05;;;;;;;;;;;18.30;49.90;;;;;;4984983;28;19918;-82
2022/05/27 11:37:44;;;;;;;;;;;18.40;50.00;;;;;;4993118;28;20476;-82
2022/05/27 11:40:25;;;;;;;;;;;18.60;51.60;;;;;;4986891;28;20332;-82
2022/05/27 11:42:55;;;;;;;;;;;18.70;51.10;;;;;;4990996;28;19994;-83
2022/05/27 11:45:24;;;;;;;;;;;18.60;50.50;;;;;;4990313;28;19914;-82
2022/05/27 11:48:04;;;;;;;;;;;18.60;50.60;;;;;;4985728;28;19924;-82
2022/05/27 11:50:29;;;;;;;;;;;18.60;50.70;;;;;;4991408;28;20012;-82
2022/05/27 11:53:07;;;;;;;;;;;18.50;49.60;;;;;;4988256;28;20012;-82
2022/05/27 11:55:44;;;;;;;;;;;18.20;50.40;;;;;;4990388;28;19917;-82
2022/05/27 11:58:23;;;;;;;;;;;18.10;51.40;;;;;;4991706;28;19961;-81
2022/05/27 12:01:08;;;;;;;;;;;18.10;51.10;;;;;;4991100;28;19914;-83
2022/05/27 12:03:38;;;;;;;;;;;18.30;50.90;;;;;;4989542;28;19906;-82
2022/05/27 12:06:06;;;;;;;;;;;18.60;48.80;;;;;;4994570;28;19918;-82
2022/05/27 12:08:43;;;;;;;;;;;18.80;48.30;;;;;;4984015;28;19921;-82
2022/05/27 12:11:19;;;;;;;;;;;18.80;47.80;;;;;;4997999;28;19985;-82
2022/05/27 12:13:47;;;;;;;;;;;18.50;46.00;;;;;;4995907;28;20008;-82
2022/05/27 12:16:15;;;;;;;;;;;18.50;47.70;;;;;;4993603;28;20439;-82
2022/05/27 12:18:48;;;;;;;;;;;18.60;48.20;;;;;;5007625;28;19922;-81
2022/05/27 12:21:19;;;;;;;;;;;18.80;46.60;;;;;;4994882;28;19918;-81
2022/05/27 12:23:49;;;;;;;;;;;18.90;46.00;;;;;;4985849;28;20072;-81
2022/05/27 12:26:15;;;;;;;;;;;19.00;46.80;;;;;;4988907;28;19940;-81
2022/05/27 12:28:43;;;;;;;;;;;19.10;45.30;;;;;;4992257;28;19921;-83
2022/05/27 12:31:09;;;;;;;;;;;19.00;44.90;;;;;;4988597;28;19913;-83
2022/05/27 12:33:36;;;;;;;;;;;19.00;46.40;;;;;;4992737;28;19961;-83
2022/05/27 12:36:20;;;;;;;;;;;19.10;45.80;;;;;;4990408;28;19918;-83
2022/05/27 12:38:47;;;;;;;;;;;19.20;46.90;;;;;;4996121;28;19968;-84
2022/05/27 12:41:16;;;;;;;;;;;19.10;45.70;;;;;;4998764;28;19918;-84
2022/05/27 12:44:01;;;;;;;;;;;18.90;47.20;;;;;;5004519;28;20006;-84
2022/05/27 12:46:32;;;;;;;;;;;18.80;47.70;;;;;;4988640;28;20366;-83
2022/05/27 12:49:17;;;;;;;;;;;18.50;48.30;;;;;;4993519;28;19933;-82
2022/05/27 12:51:44;;;;;;;;;;;18.40;49.10;;;;;;4978463;28;19914;-82
2022/05/27 12:54:10;;;;;;;;;;;18.50;48.00;;;;;;4993652;28;19914;-82
2022/05/27 13:02:14;;;;;;;;;;;18.90;47.10;;;;;;4995702;28;19945;-82
2022/05/27 13:04:43;;;;;;;;;;;19.00;48.90;;;;;;4978108;28;20254;-81
2022/05/27 13:07:09;;;;;;;;;;;19.30;45.80;;;;;;4995831;28;19957;-82
2022/05/27 13:09:37;;;;;;;;;;;19.20;45.80;;;;;;4996169;28;19996;-82
2022/05/27 13:12:02;;;;;;;;;;;19.10;46.90;;;;;;4997631;28;19922;-81
2022/05/27 13:14:43;;;;;;;;;;;19.00;46.50;;;;;;4992002;28;20324;-82
2022/05/27 13:17:26;;;;;;;;;;;19.00;46.40;;;;;;4994286;28;19981;-83
2022/05/27 13:19:57;;;;;;;;;;;18.80;46.20;;;;;;4993494;28;19914;-81
2022/05/27 13:22:35;;;;;;;;;;;18.60;45.30;;;;;;4989816;28;19921;-82
2022/05/27 13:25:21;;;;;;;;;;;18.50;45.80;;;;;;4990547;28;20472;-82
2022/05/27 13:27:47;;;;;;;;;;;18.60;45.40;;;;;;4971663;28;20274;-82
2022/05/27 13:30:14;;;;;;;;;;;18.50;45.80;;;;;;4980714;28;20351;-81
2022/05/27 13:32:58;;;;;;;;;;;18.50;46.70;;;;;;4989329;28;20338;-82
2022/05/27 13:35:23;;;;;;;;;;;18.60;44.60;;;;;;4976417;28;19918;-81
2022/05/27 13:37:54;;;;;;;;;;;18.60;44.40;;;;;;4991382;28;19928;-82
2022/05/27 13:40:23;;;;;;;;;;;18.70;44.60;;;;;;4987838;28;19914;-81
2022/05/27 13:42:54;;;;;;;;;;;18.70;43.30;;;;;;4990305;28;19940;-81
2022/05/27 13:45:26;;;;;;;;;;;18.60;45.20;;;;;;4992973;28;19909;-82
2022/05/27 13:47:56;;;;;;;;;;;18.50;45.30;;;;;;4972139;28;19988;-82
2022/05/27 13:50:23;;;;;;;;;;;18.40;45.30;;;;;;4986620;28;19910;-82
2022/05/27 13:52:48;;;;;;;;;;;18.60;44.30;;;;;;5001774;28;19970;-81
2022/05/27 13:55:14;;;;;;;;;;;18.70;44.80;;;;;;5009168;28;19976;-81
2022/05/27 13:57:46;;;;;;;;;;;18.80;44.70;;;;;;4996278;28;20040;-81
2022/05/27 14:00:16;;;;;;;;;;;18.90;44.60;;;;;;4995067;28;19910;-80
2022/05/27 14:02:49;;;;;;;;;;;19.00;43.50;;;;;;5001164;28;19977;-83
2022/05/27 14:05:21;;;;;;;;;;;19.00;43.70;;;;;;5004581;28;19925;-83
2022/05/27 14:07:49;;;;;;;;;;;19.10;42.30;;;;;;5002317;28;19910;-81
2022/05/27 14:10:28;;;;;;;;;;;19.10;42.20;;;;;;5006399;28;19975;-80
2022/05/27 14:12:55;;;;;;;;;;;19.10;42.20;;;;;;4964478;28;19922;-81
2022/05/27 14:15:24;;;;;;;;;;;19.20;42.10;;;;;;4938642;28;20213;-80
2022/05/27 14:17:51;;;;;;;;;;;19.30;41.70;;;;;;4952819;28;19909;-81
2022/05/27 14:20:22;;;;;;;;;;;19.30;41.00;;;;;;4945137;28;19977;-81
2022/05/27 14:22:48;;;;;;;;;;;19.30;42.00;;;;;;4950229;28;19918;-80
2022/05/27 14:25:31;;;;;;;;;;;19.40;41.50;;;;;;4940999;28;20304;-81
2022/05/27 14:27:58;;;;;;;;;;;19.40;42.20;;;;;;4954378;28;20181;-81
2022/05/27 14:30:35;;;;;;;;;;;19.30;42.70;;;;;;4950217;28;20214;-78
2022/05/27 14:33:01;;;;;;;;;;;19.20;43.00;;;;;;4943440;28;20745;-78
2022/05/27 14:35:28;;;;;;;;;;;19.00;43.50;;;;;;4943249;28;20195;-78
2022/05/27 14:38:06;;;;;;;;;;;19.00;43.80;;;;;;4946935;28;20011;-79
2022/05/27 14:40:51;;;;;;;;;;;19.10;44.00;;;;;;4953623;28;20419;-80
2022/05/27 14:43:34;;;;;;;;;;;19.00;41.50;;;;;;4959088;28;20044;-81
2022/05/27 14:46:11;;;;;;;;;;;19.00;42.60;;;;;;4948505;28;19920;-81
2022/05/27 14:48:37;;;;;;;;;;;19.20;43.20;;;;;;4946553;28;19909;-79
2022/05/27 14:51:15;;;;;;;;;;;19.10;42.90;;;;;;4947918;28;20184;-80
2022/05/27 14:53:41;;;;;;;;;;;18.90;43.90;;;;;;4945984;28;19949;-81
2022/05/27 14:56:08;;;;;;;;;;;18.80;43.90;;;;;;4947800;28;19937;-80
2022/05/27 14:58:35;;;;;;;;;;;18.60;44.60;;;;;;4947391;28;20254;-79
2022/05/27 15:01:01;;;;;;;;;;;18.60;45.40;;;;;;4922700;28;20754;-79
2022/05/27 15:03:29;;;;;;;;;;;18.70;45.00;;;;;;4943179;28;20000;-79
2022/05/27 15:06:05;;;;;;;;;;;18.70;45.00;;;;;;4938173;28;19917;-79
2022/05/27 15:08:32;;;;;;;;;;;19.00;45.70;;;;;;4949421;28;19917;-79